createdAt,value
2023-03-20T00:02:19.504Z,27.88
2023-03-20T00:04:46.493Z,31.70
2023-03-20T00:07:13.295Z,31.40
2023-03-20T00:09:40.364Z,34.40
2023-03-20T00:12:07.460Z,33.13
2023-03-20T00:14:34.698Z,43.87
2023-03-20T00:17:01.988Z,44.80
2023-03-20T00:19:29.495Z,55.85
2023-03-20T00:21:57.043Z,44.30
2023-03-20T00:24:24.437Z,66.82
2023-03-20T00:26:53.243Z,68.43
2023-03-20T00:29:30.795Z,79.18
2023-03-20T00:31:58.343Z,55.72
2023-03-20T00:34:29.437Z,53.63
2023-03-20T00:36:56.758Z,52.55
2023-03-20T00:39:24.255Z,34.47
2023-03-20T00:41:57.590Z,85.28
2023-03-20T00:44:35.692Z,76.70
2023-03-20T00:47:17.889Z,54.17
2023-03-20T00:49:46.886Z,77.13
2023-03-20T00:52:14.911Z,80.80
2023-03-20T00:54:41.721Z,62.47
2023-03-20T00:57:15.989Z,71.45
2023-03-20T00:59:54.129Z,60.38
2023-03-20T01:02:23.671Z,47.80
2023-03-20T01:04:50.632Z,35.10
2023-03-20T01:07:18.870Z,34.65
2023-03-20T01:09:45.605Z,37.30
2023-03-20T01:12:14.272Z,40.97
2023-03-20T01:14:42.179Z,43.90
2023-03-20T01:17:20.797Z,80.33
2023-03-20T01:19:47.885Z,82.43
2023-03-20T01:22:14.777Z,140.27
2023-03-20T01:24:42.172Z,151.25
2023-03-20T01:27:15.405Z,163.30
2023-03-20T01:29:42.561Z,179.00
2023-03-20T01:32:15.514Z,226.52
2023-03-20T01:34:44.761Z,211.38
2023-03-20T01:37:15.766Z,204.93
2023-03-20T01:39:42.420Z,230.60
2023-03-20T01:42:12.110Z,273.48
2023-03-20T01:44:39.034Z,276.90
2023-03-20T01:47:16.431Z,287.83
2023-03-20T01:50:22.305Z,166.77
2023-03-20T01:53:19.046Z,214.77
2023-03-20T01:55:56.095Z,192.55
2023-03-20T01:58:36.092Z,207.50
2023-03-20T02:01:05.224Z,204.10
2023-03-20T02:03:33.133Z,192.07
2023-03-20T02:06:37.572Z,186.05
2023-03-20T02:09:14.421Z,230.45
2023-03-20T02:11:45.004Z,238.55
2023-03-20T02:14:13.278Z,194.60
2023-03-20T02:17:00.456Z,234.37
2023-03-20T02:19:46.208Z,251.82
2023-03-20T02:22:24.132Z,282.50
2023-03-20T02:25:15.961Z,264.73
2023-03-20T02:28:01.294Z,283.77
2023-03-20T02:30:48.328Z,277.65
2023-03-20T02:33:27.708Z,272.67
2023-03-20T02:36:39.189Z,255.73
2023-03-20T02:39:12.042Z,248.60
2023-03-20T02:41:51.829Z,217.10
2023-03-20T02:44:26.118Z,263.07
2023-03-20T02:47:23.792Z,273.88
2023-03-20T02:50:05.714Z,242.43
2023-03-20T02:52:47.487Z,237.50
2023-03-20T02:55:22.112Z,266.90
2023-03-20T02:58:09.512Z,238.85
2023-03-20T03:00:42.342Z,266.02
2023-03-20T03:03:15.716Z,276.30
2023-03-20T03:05:54.144Z,297.02
2023-03-20T03:08:24.227Z,271.92
2023-03-20T03:10:58.930Z,284.03
2023-03-20T03:13:30.563Z,278.52
2023-03-20T03:16:03.146Z,305.08
2023-03-20T03:18:32.150Z,288.85
2023-03-20T03:21:02.288Z,263.40
2023-03-20T03:23:31.732Z,244.25
2023-03-20T03:26:02.304Z,289.50
2023-03-20T03:28:37.206Z,294.10
2023-03-20T03:31:07.264Z,305.27
2023-03-20T03:33:38.263Z,300.70
2023-03-20T03:36:23.159Z,268.87
2023-03-20T03:39:47.417Z,271.27
2023-03-20T03:42:33.935Z,267.25
2023-03-20T03:45:14.645Z,255.87
2023-03-20T03:47:47.049Z,303.57
2023-03-20T03:50:19.211Z,292.85
2023-03-20T03:52:49.444Z,290.17
2023-03-20T03:55:24.134Z,319.42
2023-03-20T03:58:15.470Z,282.88
2023-03-20T04:00:44.757Z,311.98
2023-03-20T04:03:12.536Z,312.67
2023-03-20T04:05:42.771Z,273.92
2023-03-20T04:08:09.824Z,137.33
2023-03-20T04:10:36.556Z,197.60
2023-03-20T04:13:03.383Z,278.17
2023-03-20T04:15:30.903Z,288.00
2023-03-20T04:17:57.792Z,295.42
2023-03-20T04:20:24.821Z,289.58
2023-03-20T04:22:51.718Z,311.80
2023-03-20T04:25:23.502Z,294.58
2023-03-20T04:27:53.754Z,306.98
2023-03-20T04:30:40.872Z,264.73
2023-03-20T04:33:25.066Z,276.17
2023-03-20T04:36:03.397Z,287.58
2023-03-20T04:38:30.269Z,282.50
2023-03-20T04:40:57.092Z,294.90
2023-03-20T04:43:23.860Z,280.25
2023-03-20T04:45:51.345Z,253.80
2023-03-20T04:48:18.301Z,252.73
2023-03-20T04:50:48.677Z,242.82
2023-03-20T04:53:18.072Z,244.00
2023-03-20T04:55:51.000Z,260.30
2023-03-20T04:58:18.272Z,256.52
2023-03-20T05:00:45.526Z,261.83
2023-03-20T05:03:12.349Z,246.30
2023-03-20T05:05:40.214Z,256.05
2023-03-20T05:08:07.557Z,228.73
2023-03-20T05:10:36.898Z,213.70
2023-03-20T05:13:22.331Z,173.85
2023-03-20T05:16:09.491Z,209.63
2023-03-20T05:18:50.835Z,222.35
2023-03-20T05:21:37.072Z,201.13
2023-03-20T05:24:17.731Z,160.43
2023-03-20T05:27:03.287Z,142.30
2023-03-20T05:30:06.464Z,198.32
2023-03-20T05:32:52.163Z,185.98
2023-03-20T05:35:27.942Z,193.98
2023-03-20T05:38:13.062Z,188.90
2023-03-20T05:40:59.962Z,161.73
2023-03-20T05:43:39.280Z,179.07
2023-03-20T05:46:38.659Z,200.25
2023-03-20T05:49:16.415Z,184.40
2023-03-20T05:52:01.928Z,177.23
2023-03-20T05:54:37.624Z,191.95
2023-03-20T05:57:17.541Z,183.02
2023-03-20T06:00:17.267Z,188.35
2023-03-20T06:02:53.187Z,179.35
2023-03-20T06:05:52.408Z,190.77
2023-03-20T06:08:19.378Z,160.15
2023-03-20T06:10:46.112Z,178.68
2023-03-20T06:13:12.943Z,143.82
2023-03-20T06:15:40.682Z,28.42
2023-03-20T06:18:15.309Z,24.98
2023-03-20T06:20:42.626Z,22.35
2023-03-20T06:23:09.389Z,23.25
2023-03-20T06:25:36.394Z,22.40
2023-03-20T06:28:03.465Z,25.95
2023-03-20T06:30:30.513Z,21.77
2023-03-20T06:32:58.363Z,19.63
2023-03-20T06:35:33.662Z,21.65
2023-03-20T06:38:00.703Z,25.77
2023-03-20T06:40:28.091Z,10.85
2023-03-20T06:42:55.997Z,14.38
2023-03-20T06:45:25.305Z,17.75
2023-03-20T06:48:01.054Z,16.42
2023-03-20T06:50:28.312Z,11.93
2023-03-20T06:52:55.568Z,8.87
2023-03-20T06:55:31.424Z,5.88
2023-03-20T06:57:58.353Z,8.00
2023-03-20T07:00:25.579Z,11.68
2023-03-20T07:02:52.952Z,12.93
2023-03-20T07:05:20.227Z,21.33
2023-03-20T07:07:47.550Z,14.75
2023-03-20T07:10:14.398Z,55.47
2023-03-20T07:12:48.308Z,75.07
2023-03-20T07:15:15.297Z,82.17
2023-03-20T07:17:42.316Z,70.88
2023-03-20T07:20:10.391Z,73.03
2023-03-20T07:22:37.337Z,52.65
2023-03-20T07:25:14.335Z,24.40
2023-03-20T07:27:42.854Z,8.70
2023-03-20T07:30:11.488Z,12.38
2023-03-20T07:32:39.820Z,12.90
2023-03-20T07:35:07.353Z,25.15
2023-03-20T07:37:34.601Z,13.90
2023-03-20T07:40:02.808Z,15.60
2023-03-20T07:42:34.201Z,18.77
2023-03-20T07:45:19.409Z,13.35
2023-03-20T07:47:48.524Z,11.93
2023-03-20T07:50:15.740Z,19.90
2023-03-20T07:52:51.297Z,14.02
2023-03-20T07:55:21.023Z,23.52
2023-03-20T07:57:51.068Z,25.52
2023-03-20T08:00:19.789Z,19.27
2023-03-20T08:02:47.125Z,18.10
2023-03-20T08:05:13.997Z,19.85
2023-03-20T08:07:42.085Z,30.58
2023-03-20T08:10:09.413Z,39.72
2023-03-20T08:12:36.347Z,26.17
2023-03-20T08:15:10.381Z,20.80
2023-03-20T08:17:38.156Z,38.95
2023-03-20T08:20:07.136Z,35.53
2023-03-20T08:22:35.993Z,35.20
2023-03-20T08:25:03.957Z,38.70
2023-03-20T08:27:32.000Z,57.23
2023-03-20T08:29:58.682Z,47.15
2023-03-20T08:32:26.457Z,63.78
2023-03-20T08:34:57.054Z,41.60
2023-03-20T08:37:27.998Z,46.97
2023-03-20T08:39:54.811Z,58.58
2023-03-20T08:42:23.803Z,15.18
2023-03-20T08:44:51.971Z,17.15
2023-03-20T08:47:19.849Z,13.20
2023-03-20T08:49:47.058Z,17.30
2023-03-20T08:52:15.871Z,24.90
2023-03-20T08:54:43.654Z,26.83
2023-03-20T08:57:10.430Z,28.95
2023-03-20T08:59:37.197Z,51.08
2023-03-20T09:02:04.300Z,44.20
2023-03-20T09:04:31.254Z,41.15
2023-03-20T09:07:01.097Z,27.40
2023-03-20T09:09:29.396Z,54.53
2023-03-20T09:11:57.110Z,111.15
2023-03-20T09:14:24.988Z,136.00
2023-03-20T09:16:51.844Z,117.75
2023-03-20T09:19:19.728Z,158.73
2023-03-20T09:21:47.084Z,196.02
2023-03-20T09:24:13.830Z,218.48
2023-03-20T09:26:41.657Z,224.65
2023-03-20T09:29:08.426Z,211.23
2023-03-20T09:31:35.247Z,240.57
2023-03-20T09:34:02.057Z,377.58
2023-03-20T09:36:28.930Z,244.57
2023-03-20T09:38:56.720Z,45.70
2023-03-20T09:41:28.276Z,30.25
2023-03-20T09:44:18.890Z,42.53
2023-03-20T09:47:18.330Z,39.60
2023-03-20T09:50:07.978Z,56.67
2023-03-20T09:52:39.196Z,20.15
2023-03-20T09:55:13.265Z,37.15
2023-03-20T09:57:51.369Z,46.22
2023-03-20T10:00:26.373Z,49.75
2023-03-20T10:02:54.361Z,63.47
2023-03-20T10:05:30.589Z,13.27
2023-03-20T10:08:01.494Z,6.17
2023-03-20T10:10:53.125Z,16.73
2023-03-20T10:13:39.222Z,7.93
2023-03-20T10:16:24.085Z,7.15
2023-03-20T10:19:09.296Z,9.18
2023-03-20T10:21:45.388Z,43.78
2023-03-20T10:24:27.606Z,55.55
2023-03-20T10:26:58.253Z,34.33
2023-03-20T10:29:32.929Z,65.93
2023-03-20T10:32:12.335Z,103.65
2023-03-20T10:35:18.478Z,149.03
2023-03-20T10:38:07.056Z,116.03
2023-03-20T10:40:38.522Z,137.73
2023-03-20T10:43:21.268Z,131.10
2023-03-20T10:45:55.374Z,76.28
2023-03-20T10:48:49.749Z,122.05
2023-03-20T10:51:20.025Z,150.80
2023-03-20T10:53:53.724Z,205.43
2023-03-20T10:56:39.306Z,244.80
2023-03-20T10:59:12.679Z,139.73
2023-03-20T11:01:39.440Z,155.00
2023-03-20T11:04:07.245Z,198.30
2023-03-20T11:06:57.580Z,169.10
2023-03-20T11:09:27.716Z,112.90
2023-03-20T11:11:57.996Z,87.43
2023-03-20T11:14:33.897Z,87.20
2023-03-20T11:17:03.873Z,196.98
2023-03-20T11:19:39.386Z,136.63
2023-03-20T11:22:31.220Z,490.02
2023-03-20T11:25:03.836Z,119.80
2023-03-20T11:27:35.113Z,127.40
2023-03-20T11:30:07.355Z,332.00
2023-03-20T11:32:49.632Z,185.80
2023-03-20T11:35:33.454Z,129.93
2023-03-20T11:38:21.693Z,128.05
2023-03-20T11:40:52.254Z,103.85
2023-03-20T11:43:22.042Z,118.85
2023-03-20T11:45:58.089Z,85.70
2023-03-20T11:48:39.904Z,74.68
2023-03-20T11:51:10.307Z,93.87
2023-03-20T11:53:57.448Z,76.57
2023-03-20T11:56:26.881Z,74.47
2023-03-20T11:59:14.503Z,123.57
2023-03-20T12:01:47.123Z,181.10
2023-03-20T12:04:19.091Z,528.70
2023-03-20T12:06:52.728Z,77.47
2023-03-20T12:09:52.485Z,33.58
2023-03-20T12:12:51.813Z,17.67
2023-03-20T12:15:24.918Z,12.67
2023-03-20T12:18:17.784Z,7.95
2023-03-20T12:21:06.471Z,6.83
2023-03-20T12:23:45.029Z,8.10
2023-03-20T12:26:14.962Z,5.43
2023-03-20T12:28:54.744Z,4.32
2023-03-20T12:31:34.253Z,5.68
2023-03-20T12:34:11.562Z,4.07
2023-03-20T12:36:43.903Z,4.57
2023-03-20T12:39:24.160Z,4.70
2023-03-20T12:42:16.641Z,1.87
2023-03-20T12:45:14.654Z,2.10
2023-03-20T12:48:11.082Z,1.80
2023-03-20T12:51:02.680Z,1.75
2023-03-20T12:53:47.307Z,1.92
2023-03-20T12:56:29.323Z,1.80
2023-03-20T12:59:17.574Z,1.83
2023-03-20T13:01:53.045Z,1.40
2023-03-20T13:04:23.078Z,1.52
2023-03-20T13:07:07.541Z,2.15
2023-03-20T13:10:06.155Z,2.22
2023-03-20T13:13:06.621Z,19.13
2023-03-20T13:15:42.408Z,3.42
2023-03-20T13:18:18.979Z,4.85
2023-03-20T13:21:04.165Z,60.78
2023-03-20T13:23:36.290Z,145.82
2023-03-20T13:26:08.379Z,26.90
2023-03-20T13:28:39.579Z,5.65
2023-03-20T13:31:06.915Z,3.83
2023-03-20T13:33:58.141Z,4.82
2023-03-20T13:36:49.286Z,9.43
2023-03-20T13:39:29.676Z,3.25
2023-03-20T13:41:59.247Z,7.35
2023-03-20T13:44:28.502Z,6.30
2023-03-20T13:47:01.163Z,11.90
2023-03-20T13:50:06.476Z,2.85
2023-03-20T13:52:42.615Z,3.80
2023-03-20T13:55:35.859Z,3.53
2023-03-20T13:58:03.831Z,42.42
2023-03-20T14:00:42.113Z,19.55
2023-03-20T14:03:15.463Z,109.43
2023-03-20T14:05:43.914Z,28.73
2023-03-20T14:08:25.976Z,9.43
2023-03-20T14:11:35.573Z,12.43
2023-03-20T14:14:23.803Z,3.58
2023-03-20T14:17:20.567Z,2.42
2023-03-20T14:19:49.001Z,2.10
2023-03-20T14:22:22.438Z,2.33
2023-03-20T14:25:04.063Z,4.25
2023-03-20T14:27:44.285Z,3.95
2023-03-20T14:30:30.276Z,3.90
2023-03-20T14:33:05.994Z,6.10
2023-03-20T14:35:38.360Z,6.97
2023-03-20T14:38:20.672Z,5.60
2023-03-20T14:41:31.945Z,2.53
2023-03-20T14:44:06.108Z,3.60
2023-03-20T14:46:55.276Z,6.57
2023-03-20T14:49:36.791Z,6.18
2023-03-20T14:52:18.983Z,6.13
2023-03-20T14:54:55.429Z,11.00
2023-03-20T14:57:45.469Z,12.00
2023-03-20T15:00:22.779Z,7.85
2023-03-20T15:02:54.206Z,6.82
2023-03-20T15:05:26.003Z,5.55
2023-03-20T15:07:53.323Z,11.05
2023-03-20T15:10:20.789Z,5.75
2023-03-20T15:12:47.896Z,5.50
2023-03-20T15:15:33.313Z,5.43
2023-03-20T15:18:13.883Z,7.70
2023-03-20T15:20:44.750Z,11.32
2023-03-20T15:23:11.629Z,6.57
2023-03-20T15:25:43.838Z,5.90
2023-03-20T15:28:24.113Z,15.63
2023-03-20T15:30:55.909Z,19.85
2023-03-20T15:33:35.908Z,24.27
2023-03-20T15:36:17.919Z,49.92
2023-03-20T15:38:45.497Z,22.80
2023-03-20T15:41:36.650Z,2.87
2023-03-20T15:44:26.730Z,1.83
2023-03-20T15:47:01.045Z,2.50
2023-03-20T15:49:29.473Z,4.07
2023-03-20T15:52:01.165Z,1.90
2023-03-20T15:54:28.348Z,2.97
2023-03-20T15:57:00.593Z,2.42
2023-03-20T15:59:31.362Z,8.77
2023-03-20T16:02:00.705Z,4.72
2023-03-20T16:04:28.418Z,2.92
2023-03-20T16:06:59.130Z,2.53
2023-03-20T16:09:27.881Z,2.50
2023-03-20T16:12:03.042Z,4.17
2023-03-20T16:14:34.810Z,7.65
2023-03-20T16:17:03.964Z,4.90
2023-03-20T16:19:31.389Z,8.43
2023-03-20T16:22:02.021Z,36.80
2023-03-20T16:24:34.497Z,19.55
2023-03-20T16:27:07.058Z,18.15
2023-03-20T16:29:33.938Z,24.25
2023-03-20T16:32:05.820Z,25.10
2023-03-20T16:34:39.605Z,10.38
2023-03-20T16:37:22.013Z,8.70
2023-03-20T16:39:49.054Z,13.35
2023-03-20T16:42:28.462Z,9.90
2023-03-20T16:44:57.220Z,18.33
2023-03-20T16:47:33.739Z,15.15
2023-03-20T16:50:17.388Z,13.75
2023-03-20T16:52:57.107Z,13.88
2023-03-20T16:55:32.105Z,16.13
2023-03-20T16:58:03.546Z,7.13
2023-03-20T17:00:41.383Z,15.67
2023-03-20T17:03:20.333Z,5.50
2023-03-20T17:06:04.789Z,4.85
2023-03-20T17:08:41.408Z,4.57
2023-03-20T17:11:14.866Z,3.22
2023-03-20T17:13:42.341Z,13.05
2023-03-20T17:16:17.852Z,18.33
2023-03-20T17:18:46.617Z,69.53
2023-03-20T17:21:13.970Z,45.53
2023-03-20T17:23:41.344Z,46.65
2023-03-20T17:26:12.984Z,31.98
2023-03-20T17:28:42.432Z,32.57
2023-03-20T17:31:14.027Z,21.17
2023-03-20T17:33:41.152Z,47.47
2023-03-20T17:36:22.918Z,51.80
2023-03-20T17:38:49.826Z,55.17
2023-03-20T17:41:18.802Z,47.58
2023-03-20T17:43:46.358Z,54.45
2023-03-20T17:46:20.228Z,48.67
2023-03-20T17:48:48.968Z,99.65
2023-03-20T17:51:16.043Z,123.30
2023-03-20T17:53:43.723Z,101.97
2023-03-20T17:56:15.021Z,93.97
2023-03-20T17:58:44.696Z,80.27
2023-03-20T18:01:12.558Z,78.50
2023-03-20T18:03:40.263Z,106.15
2023-03-20T18:06:08.193Z,116.32
2023-03-20T18:08:35.415Z,133.70
2023-03-20T18:11:03.725Z,172.43
2023-03-20T18:13:30.632Z,236.27
2023-03-20T18:15:58.511Z,892.08
2023-03-20T18:18:26.319Z,653.05
2023-03-20T18:20:54.791Z,602.93
2023-03-20T18:23:23.065Z,564.80
2023-03-20T18:25:50.300Z,160.63
2023-03-20T18:28:22.879Z,222.38
2023-03-20T18:30:50.684Z,910.20
2023-03-20T18:33:17.684Z,765.07
2023-03-20T18:35:45.190Z,999.90
2023-03-20T18:38:16.080Z,939.65
2023-03-20T18:40:47.062Z,277.50
2023-03-20T18:43:14.026Z,136.77
2023-03-20T18:45:41.212Z,67.30
2023-03-20T18:48:12.209Z,108.78
2023-03-20T18:50:42.810Z,158.20
2023-03-20T18:53:11.101Z,214.45
2023-03-20T18:55:38.349Z,240.03
2023-03-20T18:58:06.359Z,260.63
2023-03-20T19:00:42.665Z,140.65
2023-03-20T19:03:11.112Z,276.98
2023-03-20T19:05:38.325Z,210.97
2023-03-20T19:08:06.644Z,228.02
2023-03-20T19:10:39.467Z,214.10
2023-03-20T19:13:07.655Z,116.93
2023-03-20T19:15:36.728Z,206.50
2023-03-20T19:18:05.847Z,173.85
2023-03-20T19:20:36.815Z,164.02
2023-03-20T19:23:09.090Z,105.68
2023-03-20T19:25:38.391Z,96.47
2023-03-20T19:28:05.984Z,135.90
2023-03-20T19:30:38.955Z,144.90
2023-03-20T19:33:07.259Z,154.10
2023-03-20T19:38:22.900Z,144.40
2023-03-20T19:40:53.092Z,147.73
2023-03-20T19:43:21.706Z,139.45
2023-03-20T19:45:51.794Z,148.48
2023-03-20T19:48:27.014Z,144.60
2023-03-20T19:50:56.923Z,121.00
2023-03-20T19:53:27.800Z,141.25
2023-03-20T19:55:55.739Z,161.45
2023-03-20T19:58:22.874Z,91.72
2023-03-20T20:00:59.273Z,132.50
2023-03-20T20:03:27.728Z,99.28
2023-03-20T20:05:55.053Z,118.32
2023-03-20T20:08:44.816Z,118.43
2023-03-20T20:11:11.847Z,135.82
2023-03-20T20:13:57.252Z,179.65
2023-03-20T20:16:26.273Z,113.73
2023-03-20T20:18:53.281Z,129.77
2023-03-20T20:22:09.814Z,103.00
2023-03-20T20:24:07.232Z,57.78
2023-03-20T20:26:38.880Z,152.38
2023-03-20T20:29:07.344Z,84.72
2023-03-20T20:31:34.322Z,53.97
2023-03-20T20:34:52.759Z,47.92
2023-03-20T20:37:42.481Z,47.55
2023-03-20T20:39:35.840Z,116.85
2023-03-20T20:42:03.113Z,36.75
2023-03-20T20:44:30.153Z,64.63
2023-03-20T20:46:57.627Z,72.20
2023-03-20T20:49:24.855Z,100.30
2023-03-20T20:51:51.731Z,86.90
2023-03-20T20:54:18.676Z,123.50
2023-03-20T20:56:46.341Z,129.23
2023-03-20T20:59:13.387Z,94.60
2023-03-20T21:01:40.455Z,108.68
2023-03-20T21:04:07.317Z,126.43
2023-03-20T21:07:05.583Z,117.68
2023-03-20T21:09:21.048Z,124.90
2023-03-20T21:11:48.615Z,138.10
2023-03-20T21:14:15.714Z,74.05
2023-03-20T21:16:42.502Z,29.83
2023-03-20T21:19:09.361Z,37.13
2023-03-20T21:21:39.045Z,142.27
2023-03-20T21:24:30.522Z,95.53
2023-03-20T21:27:04.332Z,113.63
2023-03-20T21:29:31.552Z,104.15
2023-03-20T21:31:58.497Z,104.17
2023-03-20T21:34:26.083Z,149.57
2023-03-20T21:36:53.116Z,150.50
2023-03-20T21:39:20.281Z,116.20
2023-03-20T21:41:47.305Z,161.75
2023-03-20T21:44:18.361Z,80.32
2023-03-20T21:47:48.532Z,95.97
2023-03-20T21:56:22.012Z,62.47
2023-03-20T21:58:44.411Z,59.23
2023-03-20T22:01:29.769Z,48.03
2023-03-20T22:04:31.586Z,70.68
2023-03-20T22:09:52.426Z,19.10
2023-03-20T22:12:43.781Z,51.40
2023-03-20T22:17:59.786Z,86.65
2023-03-20T22:23:48.901Z,126.95
2023-03-20T22:27:08.483Z,90.03
2023-03-20T22:29:44.032Z,69.97
2023-03-20T22:32:38.567Z,158.50
2023-03-20T22:35:22.763Z,86.35
2023-03-20T22:46:07.703Z,116.95
2023-03-20T22:48:37.592Z,115.97
2023-03-20T22:51:05.010Z,109.00
2023-03-20T22:53:32.280Z,120.40
2023-03-20T22:56:00.222Z,244.90
2023-03-20T22:58:27.230Z,142.05
2023-03-20T23:00:54.996Z,92.45
2023-03-20T23:03:39.879Z,119.32
2023-03-20T23:06:20.913Z,157.95
2023-03-20T23:08:55.184Z,142.67
2023-03-20T23:11:25.528Z,138.18
2023-03-20T23:13:52.830Z,145.57
2023-03-20T23:16:20.268Z,239.93
2023-03-20T23:18:48.107Z,131.40
2023-03-20T23:21:14.902Z,246.68
2023-03-20T23:23:41.620Z,163.43
2023-03-20T23:26:12.822Z,142.02
2023-03-20T23:28:41.629Z,152.90
2023-03-20T23:31:17.817Z,148.57
2023-03-20T23:33:54.189Z,253.87
2023-03-20T23:36:35.286Z,114.28
2023-03-20T23:39:05.899Z,133.20
2023-03-20T23:42:06.573Z,206.70
2023-03-20T23:44:21.160Z,159.65
2023-03-20T23:46:48.419Z,166.15
2023-03-20T23:49:16.554Z,243.65
2023-03-20T23:51:44.352Z,185.07
2023-03-20T23:54:12.173Z,173.77
2023-03-20T23:56:39.437Z,185.35
2023-03-20T23:59:20.183Z,152.52
